Flight Track Log - Related Links

Times and Time Zones

All times are in EDT time to prevent confusion due to time zone crossing. See the JZA8145 flight status page for this flight to view local times or setup timezone preferences in your user account.

Time Position Orientation Groundspeed Altitude Reporting Facility
EDT Latitude Longitude Course Direction KTS MPH feet Rate Location/Type
Sun 03:01:27 PM 53.2667 -113.5833 169° South 130 150 3,400  Level Edmonton Center
Sun 03:02:27 PM 53.2333 -113.5333 138° Southeast 180 207 4,200 900 Climbing Edmonton Center
Sun 03:03:27 PM 53.1833 -113.5333 180° South 170 196 5,200 1,150 Climbing Edmonton Center
Sun 03:04:27 PM 53.1333 -113.5167 169° South 170 196 6,500 1,200 Climbing Edmonton Center
Sun 03:05:00 PM 53.0703 -113.8185 163° South  Level FlightAware Approximate
Sun 03:05:27 PM 53.0833 -113.5333 191° South 180 207 7,600  Level Edmonton Center
Sun 03:06:00 PM 53.0054 -113.7962 169° South  Level FlightAware Approximate
Sun 03:06:27 PM 53.0333 -113.5333 180° South 190 219 8,700  Level Edmonton Center
Sun 03:07:27 PM 52.9833 -113.5500 191° South 200 230 10,000 1,250 Climbing Edmonton Center
Sun 03:08:27 PM 52.9333 -113.5333 169° South 190 219 11,200 1,050 Climbing Edmonton Center
Sun 03:09:27 PM 52.8500 -113.5500 187° South 200 230 12,100 1,200 Climbing Edmonton Center
Sun 03:10:27 PM 52.8000 -113.5333 169° South 200 230 13,600 1,300 Climbing Edmonton Center
Sun 03:11:27 PM 52.7500 -113.5500 191° South 160 184 14,700 1,050 Climbing Edmonton Center
Sun 03:12:27 PM 52.7167 -113.5500 180° South 160 184 15,700 1,050 Climbing Edmonton Center
Sun 03:13:27 PM 52.6667 -113.5667 191° South 170 196 16,800 650 Climbing Edmonton Center
Sun 03:14:27 PM 52.6000 -113.5500 171° South 200 230 17,000 50 Climbing Edmonton Center
Sun 03:15:27 PM 52.5333 -113.5667 189° South 230 265 16,900 -50 Descending Edmonton Center
Sun 03:16:27 PM 52.4667 -113.5833 189° South 250 288 16,900  Level Edmonton Center
Sun 03:17:27 PM 52.4000 -113.5667 171° South 250 288 16,900  Level Edmonton Center
Sun 03:18:27 PM 52.3333 -113.5833 189° South 260 299 16,900  Level Edmonton Center
Sun 03:19:27 PM 52.2667 -113.6000 189° South 260 299 16,900  Level Edmonton Center
Sun 03:20:27 PM 52.1667 -113.6000 180° South 260 299 16,900  Level Edmonton Center
Sun 03:21:27 PM 52.1000 -113.5833 171° South 260 299 16,900 -600 Level Edmonton Center
Sun 03:22:27 PM 52.0333 -113.6000 189° South 270 311 15,700 -1,150 Descending Edmonton Center
Sun 03:23:27 PM 51.9500 -113.6167 187° South 290 334 14,600 -1,100 Descending Edmonton Center
Sun 03:24:27 PM 51.8833 -113.6000 171° South 290 334 13,500 -1,050 Descending Edmonton Center
Sun 03:25:27 PM 51.8000 -113.6167 187° South 280 322 12,500 -900 Descending Edmonton Center
Sun 03:26:27 PM 51.7333 -113.6500 197° South 260 299 11,700 -750 Descending Edmonton Center
Sun 03:27:27 PM 51.6500 -113.6833 194° South 270 311 11,000 -450 Descending Edmonton Center
Sun 03:28:27 PM 51.5833 -113.7333 205° Southwest 260 299 10,800 -350 Descending Edmonton Center
Sun 03:29:27 PM 51.5333 -113.8000 220° Southwest 240 276 10,300 -450 Descending Edmonton Center
Sun 03:30:27 PM 51.4833 -113.8667 220° Southwest 240 276 9,900 -400 Descending Edmonton Center
Sun 03:31:27 PM 51.4500 -113.9667 242° Southwest 250 288 9,500 -400 Descending Edmonton Center
Sun 03:32:27 PM 51.4000 -114.0500 226° Southwest 210 242 9,100 -500 Descending Edmonton Center
Sun 03:33:27 PM 51.3500 -114.0333 168° South 170 196 8,500 -750 Descending Edmonton Center
Sun 03:34:27 PM 51.3000 -114.0500 192° South 170 196 7,600 -900 Descending Edmonton Center
Sun 03:35:27 PM 51.2667 -114.0500 180° South 170 196 6,700 -950 Descending Edmonton Center
Sun 03:36:27 PM 51.2167 -114.0333 168° South 170 196 5,700 -950 Descending Edmonton Center
Sun 03:37:27 PM 51.1667 -114.0500 192° South 170 196 4,800 -900 Descending Edmonton Center

Login

Don't have an account? Register now (free) for customized features, flight alerts, and more!